createdAt,value
2019-03-25T00:02:04.563Z,7.87
2019-03-25T00:04:31.134Z,12.13
2019-03-25T00:06:57.794Z,7.17
2019-03-25T00:09:24.565Z,11.70
2019-03-25T00:11:51.131Z,11.57
2019-03-25T00:14:17.826Z,10.17
2019-03-25T00:16:44.491Z,10.07
2019-03-25T00:19:11.085Z,11.23
2019-03-25T00:21:37.729Z,9.90
2019-03-25T00:24:04.494Z,13.43
2019-03-25T00:26:31.107Z,14.60
2019-03-25T00:28:57.666Z,11.00
2019-03-25T00:31:24.247Z,14.00
2019-03-25T00:33:50.815Z,12.20
2019-03-25T00:36:17.402Z,9.53
2019-03-25T00:38:43.963Z,14.27
2019-03-25T00:41:10.550Z,14.50
2019-03-25T00:43:37.134Z,10.93
2019-03-25T00:46:03.735Z,9.47
2019-03-25T00:48:30.299Z,8.63
2019-03-25T00:50:56.879Z,9.83
2019-03-25T00:53:59.365Z,8.80
2019-03-25T00:56:25.963Z,10.73
2019-03-25T00:58:52.736Z,12.47
2019-03-25T01:01:19.316Z,10.47
2019-03-25T01:03:45.909Z,13.50
2019-03-25T01:06:12.503Z,13.53
2019-03-25T01:08:39.139Z,12.87
2019-03-25T01:11:05.842Z,12.13
2019-03-25T01:13:32.423Z,15.83
2019-03-25T01:15:58.982Z,11.60
2019-03-25T01:18:25.562Z,11.43
2019-03-25T01:20:52.123Z,12.70
2019-03-25T01:23:18.708Z,14.50
2019-03-25T01:25:45.281Z,12.77
2019-03-25T01:28:11.863Z,9.33
2019-03-25T01:30:38.427Z,12.83
2019-03-25T01:33:05.007Z,14.47
2019-03-25T01:35:31.572Z,13.63
2019-03-25T01:37:58.126Z,10.67
2019-03-25T01:40:24.701Z,10.57
2019-03-25T01:42:51.283Z,13.50
2019-03-25T01:45:17.871Z,11.60
2019-03-25T01:47:44.433Z,15.10
2019-03-25T01:50:11.017Z,12.43
2019-03-25T01:52:37.579Z,14.57
2019-03-25T01:55:12.998Z,12.97
2019-03-25T01:57:32.731Z,13.47
2019-03-25T01:59:59.319Z,11.43
2019-03-25T02:02:25.882Z,12.33
2019-03-25T02:04:52.449Z,13.17
2019-03-25T02:07:19.022Z,14.30
2019-03-25T02:09:45.591Z,11.73
2019-03-25T02:12:12.175Z,11.33
2019-03-25T02:14:38.750Z,12.93
2019-03-25T02:17:05.334Z,14.00
2019-03-25T02:19:31.912Z,14.70
2019-03-25T02:21:58.479Z,16.87
2019-03-25T02:24:25.043Z,12.43
2019-03-25T02:26:51.626Z,14.57
2019-03-25T02:29:18.191Z,12.33
2019-03-25T02:31:44.778Z,10.47
2019-03-25T02:34:11.353Z,12.37
2019-03-25T02:36:38.009Z,13.00
2019-03-25T02:39:04.680Z,12.60
2019-03-25T02:41:31.235Z,12.33
2019-03-25T02:43:57.826Z,15.43
2019-03-25T02:46:24.399Z,10.97
2019-03-25T02:48:51.083Z,11.03
2019-03-25T02:51:17.894Z,12.30
2019-03-25T02:53:44.555Z,11.80
2019-03-25T02:56:11.115Z,14.03
2019-03-25T02:58:37.943Z,9.90
2019-03-25T03:01:04.855Z,17.47
2019-03-25T03:03:31.456Z,14.13
2019-03-25T03:05:58.009Z,12.47
2019-03-25T03:08:24.573Z,13.60
2019-03-25T03:10:51.242Z,13.00
2019-03-25T03:13:17.822Z,13.60
2019-03-25T03:15:44.488Z,10.67
2019-03-25T03:18:11.052Z,10.03
2019-03-25T03:20:37.621Z,12.17
2019-03-25T03:23:04.189Z,11.27
2019-03-25T03:25:31.064Z,14.60
2019-03-25T03:27:57.643Z,11.97
2019-03-25T03:30:24.219Z,13.03
2019-03-25T03:32:50.892Z,10.23
2019-03-25T03:35:17.487Z,11.23
2019-03-25T03:37:44.057Z,7.23
2019-03-25T03:40:10.628Z,10.80
2019-03-25T03:42:37.340Z,10.30
2019-03-25T03:45:04.489Z,10.47
2019-03-25T03:47:31.081Z,11.70
2019-03-25T03:49:57.648Z,9.37
2019-03-25T03:52:24.237Z,12.40
2019-03-25T03:54:50.804Z,11.30
2019-03-25T03:57:17.497Z,9.87
2019-03-25T04:00:03.152Z,14.43
2019-03-25T04:02:29.731Z,15.63
2019-03-25T04:04:56.291Z,7.60
2019-03-25T04:07:22.977Z,11.97
2019-03-25T04:09:49.560Z,13.47
2019-03-25T04:12:16.231Z,10.33
2019-03-25T04:14:43.087Z,14.90
2019-03-25T04:17:09.751Z,10.40
2019-03-25T04:19:36.334Z,11.27
2019-03-25T04:22:22.967Z,12.20
2019-03-25T04:24:49.564Z,10.17
2019-03-25T04:27:16.202Z,12.33
2019-03-25T04:29:42.786Z,10.63
2019-03-25T04:32:09.355Z,11.67
2019-03-25T04:34:35.935Z,10.40
2019-03-25T04:37:02.503Z,12.37
2019-03-25T04:39:29.090Z,13.27
2019-03-25T04:41:55.818Z,17.63
2019-03-25T04:44:22.394Z,12.97
2019-03-25T04:46:48.984Z,13.80
2019-03-25T04:49:15.571Z,13.80
2019-03-25T04:51:44.681Z,11.60
2019-03-25T04:54:10.631Z,17.40
2019-03-25T04:56:40.005Z,14.37
2019-03-25T04:59:05.674Z,13.37
2019-03-25T05:01:32.337Z,11.53
2019-03-25T05:03:58.996Z,10.50
2019-03-25T05:06:25.578Z,14.07
2019-03-25T05:08:52.134Z,10.97
2019-03-25T05:11:30.106Z,15.33
2019-03-25T05:13:47.423Z,10.90
2019-03-25T05:16:14.190Z,15.70
2019-03-25T05:18:40.777Z,13.23
2019-03-25T05:21:07.363Z,16.57
2019-03-25T05:23:33.926Z,13.77
2019-03-25T05:26:00.603Z,14.37
2019-03-25T05:28:27.163Z,16.00
2019-03-25T05:30:53.726Z,17.47
2019-03-25T05:33:20.301Z,14.13
2019-03-25T05:35:47.021Z,13.40
2019-03-25T05:38:13.657Z,12.60
2019-03-25T05:40:40.210Z,15.80
2019-03-25T05:43:06.824Z,15.40
2019-03-25T05:45:33.682Z,13.13
2019-03-25T05:48:00.272Z,11.13
2019-03-25T05:50:26.826Z,9.13
2019-03-25T05:52:53.410Z,10.20
2019-03-25T05:55:19.991Z,10.97
2019-03-25T05:57:46.742Z,9.83
2019-03-25T06:00:14.318Z,14.87
2019-03-25T06:02:41.054Z,11.97
2019-03-25T06:05:07.722Z,11.03
2019-03-25T06:07:34.539Z,7.47
2019-03-25T06:10:01.126Z,11.20
2019-03-25T06:12:27.697Z,8.47
2019-03-25T06:14:54.489Z,9.07
2019-03-25T06:17:21.058Z,16.03
2019-03-25T06:19:47.694Z,14.23
2019-03-25T06:22:14.368Z,11.87
2019-03-25T06:24:40.953Z,13.73
2019-03-25T06:27:14.110Z,13.53
2019-03-25T06:29:36.006Z,13.57
2019-03-25T06:32:02.678Z,14.47
2019-03-25T06:34:29.275Z,14.23
2019-03-25T06:36:55.846Z,16.90
2019-03-25T06:39:22.410Z,13.43
2019-03-25T06:41:49.002Z,18.07
2019-03-25T06:44:15.586Z,18.13
2019-03-25T06:46:42.418Z,17.23
2019-03-25T06:49:08.989Z,16.53
2019-03-25T06:51:35.570Z,27.93
2019-03-25T06:54:02.330Z,24.43
2019-03-25T06:56:28.910Z,16.53
2019-03-25T06:58:55.478Z,13.30
2019-03-25T07:01:22.066Z,15.63
2019-03-25T07:03:48.664Z,12.97
2019-03-25T07:06:15.270Z,15.07
2019-03-25T07:08:41.850Z,19.50
2019-03-25T07:11:08.940Z,16.37
2019-03-25T07:13:35.642Z,15.03
2019-03-25T07:16:02.463Z,19.33
2019-03-25T07:18:29.058Z,14.97
2019-03-25T07:20:55.630Z,21.07
2019-03-25T07:23:22.224Z,13.00
2019-03-25T07:25:48.802Z,15.23
2019-03-25T07:28:15.394Z,14.40
2019-03-25T07:30:42.022Z,21.53
2019-03-25T07:33:08.610Z,22.13
2019-03-25T07:35:35.188Z,13.87
2019-03-25T07:38:01.778Z,18.13
2019-03-25T07:40:28.354Z,15.17
2019-03-25T07:42:54.974Z,13.93
2019-03-25T07:45:21.571Z,14.80
2019-03-25T07:47:48.158Z,13.23
2019-03-25T07:50:14.876Z,17.23
2019-03-25T07:52:41.618Z,18.30
2019-03-25T07:55:08.557Z,17.13
2019-03-25T07:57:35.163Z,14.37
2019-03-25T08:00:13.059Z,12.73
2019-03-25T08:02:32.516Z,15.87
2019-03-25T08:04:59.236Z,13.07
2019-03-25T08:07:25.834Z,17.00
2019-03-25T08:09:52.695Z,13.17
2019-03-25T08:12:20.007Z,13.70
2019-03-25T08:14:46.729Z,15.67
2019-03-25T08:17:13.371Z,17.53
2019-03-25T08:19:40.082Z,11.17
2019-03-25T08:22:06.678Z,18.47
2019-03-25T08:24:33.282Z,14.93
2019-03-25T08:27:00.122Z,14.03
2019-03-25T08:29:26.742Z,11.90
2019-03-25T08:31:53.373Z,9.20
2019-03-25T08:34:19.999Z,10.07
2019-03-25T08:36:46.762Z,8.93
2019-03-25T08:39:13.370Z,14.37
2019-03-25T08:41:40.001Z,11.93
2019-03-25T08:44:06.723Z,12.77
2019-03-25T08:46:33.343Z,15.77
2019-03-25T08:48:59.966Z,12.83
2019-03-25T08:51:26.598Z,16.90
2019-03-25T08:53:53.198Z,10.37
2019-03-25T08:56:19.808Z,14.20
2019-03-25T08:58:46.431Z,13.33
2019-03-25T09:01:13.019Z,12.13
2019-03-25T09:03:39.659Z,11.53
2019-03-25T09:06:06.271Z,12.50
2019-03-25T09:08:33.055Z,12.70
2019-03-25T09:10:59.712Z,15.63
2019-03-25T09:13:26.611Z,18.23
2019-03-25T09:15:53.163Z,15.27
2019-03-25T09:18:19.746Z,12.23
2019-03-25T09:20:46.311Z,11.53
2019-03-25T09:23:12.951Z,17.10
2019-03-25T09:25:39.742Z,16.10
2019-03-25T09:28:06.398Z,14.17
2019-03-25T09:30:52.807Z,11.97
2019-03-25T09:33:19.666Z,13.30
2019-03-25T09:35:46.368Z,10.40
2019-03-25T09:38:13.011Z,14.47
2019-03-25T09:40:39.755Z,10.20
2019-03-25T09:43:06.334Z,9.77
2019-03-25T09:45:32.931Z,10.60
2019-03-25T09:47:59.478Z,11.93
2019-03-25T09:50:26.054Z,15.73
2019-03-25T09:52:52.606Z,8.53
2019-03-25T09:55:19.191Z,9.23
2019-03-25T09:57:46.007Z,10.33
2019-03-25T10:00:12.910Z,9.13
2019-03-25T10:02:39.596Z,13.57
2019-03-25T10:05:06.446Z,11.87
2019-03-25T10:07:33.114Z,12.20
2019-03-25T10:09:59.675Z,8.17
2019-03-25T10:12:26.250Z,12.40
2019-03-25T10:14:52.802Z,8.93
2019-03-25T10:17:20.386Z,6.63
2019-03-25T10:19:46.935Z,7.43
2019-03-25T10:22:33.377Z,10.00
2019-03-25T10:24:59.943Z,9.67
2019-03-25T10:27:26.527Z,9.87
2019-03-25T10:29:54.083Z,7.73
2019-03-25T10:32:20.657Z,8.70
2019-03-25T10:34:47.463Z,7.83
2019-03-25T10:37:14.033Z,11.93
2019-03-25T10:39:40.686Z,7.27
2019-03-25T10:42:07.262Z,8.93
2019-03-25T10:44:33.834Z,10.17
2019-03-25T10:47:00.390Z,8.60
2019-03-25T10:49:26.986Z,8.47
2019-03-25T10:51:53.611Z,8.13
2019-03-25T10:54:20.203Z,6.20
2019-03-25T10:56:49.331Z,5.20
2019-03-25T10:59:15.615Z,2.83
2019-03-25T11:01:42.474Z,1.77
2019-03-25T11:04:09.098Z,0.50
2019-03-25T11:06:35.711Z,0.80
2019-03-25T11:09:04.243Z,2.20
2019-03-25T11:11:30.855Z,3.27
2019-03-25T11:13:57.588Z,5.33
2019-03-25T11:16:24.298Z,4.83
2019-03-25T11:18:50.922Z,6.20
2019-03-25T11:21:17.555Z,8.60
2019-03-25T11:23:44.168Z,9.33
2019-03-25T11:26:10.886Z,10.57
2019-03-25T11:28:37.534Z,8.93
2019-03-25T11:31:04.155Z,11.10
2019-03-25T11:33:30.869Z,11.80
2019-03-25T11:35:57.496Z,11.93
2019-03-25T11:38:24.210Z,5.83
2019-03-25T11:40:50.950Z,9.83
2019-03-25T11:43:17.556Z,10.47
2019-03-25T11:45:44.288Z,10.03
2019-03-25T11:48:11.256Z,8.03
2019-03-25T11:50:38.372Z,7.80
2019-03-25T11:53:05.061Z,6.90
2019-03-25T11:55:31.702Z,7.63
2019-03-25T11:57:58.310Z,7.67
2019-03-25T12:00:25.239Z,9.43
2019-03-25T12:02:51.903Z,8.07
2019-03-25T12:05:18.522Z,6.20
2019-03-25T12:07:45.179Z,8.10
2019-03-25T12:10:11.991Z,7.33
2019-03-25T12:12:38.619Z,9.47
2019-03-25T12:15:05.634Z,6.50
2019-03-25T12:17:32.258Z,7.93
2019-03-25T12:19:58.870Z,5.47
2019-03-25T12:22:25.551Z,5.63
2019-03-25T12:24:52.106Z,6.97
2019-03-25T12:27:18.732Z,6.70
2019-03-25T12:29:45.605Z,4.67
2019-03-25T12:32:12.154Z,6.80
2019-03-25T12:34:38.726Z,5.13
2019-03-25T12:37:05.282Z,4.00
2019-03-25T12:39:32.085Z,8.20
2019-03-25T12:41:58.659Z,7.73
2019-03-25T12:44:25.241Z,8.00
2019-03-25T12:46:51.790Z,4.00
2019-03-25T12:49:18.361Z,4.00
2019-03-25T12:51:44.918Z,3.73
2019-03-25T12:54:11.487Z,5.87
2019-03-25T12:56:38.042Z,6.60
2019-03-25T12:59:04.610Z,5.10
2019-03-25T13:01:31.163Z,7.77
2019-03-25T13:03:57.931Z,8.80
2019-03-25T13:06:24.507Z,7.70
2019-03-25T13:08:51.067Z,6.40
2019-03-25T13:11:17.634Z,8.73
2019-03-25T13:13:44.186Z,11.10
2019-03-25T13:16:10.868Z,9.43
2019-03-25T13:18:37.473Z,5.30
2019-03-25T13:21:04.202Z,5.60
2019-03-25T13:23:30.755Z,4.20
2019-03-25T13:25:57.322Z,5.67
2019-03-25T13:28:23.883Z,3.87
2019-03-25T13:30:50.458Z,3.10
2019-03-25T13:33:17.015Z,2.03
2019-03-25T13:35:43.590Z,4.10
2019-03-25T13:38:10.150Z,3.70
2019-03-25T13:40:36.742Z,3.57
2019-03-25T13:43:03.303Z,4.03
2019-03-25T13:45:29.857Z,5.67
2019-03-25T13:47:56.431Z,7.10
2019-03-25T13:50:23.234Z,9.90
2019-03-25T13:52:49.814Z,7.87
2019-03-25T13:55:16.471Z,5.60
2019-03-25T13:57:44.934Z,7.37
2019-03-25T14:00:11.736Z,7.53
2019-03-25T14:02:38.367Z,8.57
2019-03-25T14:05:05.802Z,6.57
2019-03-25T14:07:32.683Z,6.17
2019-03-25T14:09:59.290Z,5.00
2019-03-25T14:12:25.931Z,5.70
2019-03-25T14:14:52.596Z,7.93
2019-03-25T14:17:19.190Z,9.47
2019-03-25T14:22:16.655Z,8.20
2019-03-25T14:24:43.222Z,10.13
2019-03-25T14:27:09.785Z,7.63
2019-03-25T14:29:55.146Z,9.97
2019-03-25T14:32:21.807Z,7.80
2019-03-25T14:34:48.650Z,9.33
2019-03-25T14:37:15.232Z,10.53
2019-03-25T14:39:41.807Z,10.17
2019-03-25T14:42:08.410Z,9.63
2019-03-25T14:44:35.282Z,11.53
2019-03-25T14:47:01.839Z,9.70
2019-03-25T14:49:28.422Z,12.97
2019-03-25T14:51:54.987Z,12.23
2019-03-25T14:54:21.805Z,8.87
2019-03-25T14:56:48.883Z,8.50
2019-03-25T14:59:18.057Z,9.07
2019-03-25T15:01:44.715Z,8.17
2019-03-25T15:04:11.299Z,10.73
2019-03-25T15:06:37.866Z,6.87
2019-03-25T15:09:04.950Z,9.60
2019-03-25T15:11:31.525Z,6.80
2019-03-25T15:13:58.224Z,7.50
2019-03-25T15:16:25.018Z,5.90
2019-03-25T15:18:51.703Z,4.07
2019-03-25T15:21:18.418Z,9.40
2019-03-25T15:23:44.983Z,9.50
2019-03-25T15:26:11.598Z,9.13
2019-03-25T15:28:38.219Z,6.70
2019-03-25T15:31:04.893Z,7.83
2019-03-25T15:33:31.550Z,6.23
2019-03-25T15:35:58.138Z,12.60
2019-03-25T15:38:25.682Z,7.83
2019-03-25T15:40:52.431Z,7.40
2019-03-25T15:43:19.198Z,5.13
2019-03-25T15:45:45.750Z,3.90
2019-03-25T15:48:12.327Z,6.73
2019-03-25T15:50:38.894Z,2.87
2019-03-25T15:53:05.634Z,3.73
2019-03-25T15:55:32.200Z,3.67
2019-03-25T15:57:58.793Z,4.23
2019-03-25T16:00:26.166Z,4.97
2019-03-25T16:02:52.753Z,6.60
2019-03-25T16:05:19.555Z,6.43
2019-03-25T16:07:46.206Z,7.47
2019-03-25T16:10:13.972Z,4.97
2019-03-25T16:12:40.843Z,7.33
2019-03-25T16:15:07.806Z,5.57
2019-03-25T16:17:34.374Z,8.80
2019-03-25T16:20:01.266Z,7.83
2019-03-25T16:22:27.829Z,5.67
2019-03-25T16:24:54.418Z,6.83
2019-03-25T16:27:21.330Z,8.60
2019-03-25T16:29:47.917Z,6.60
2019-03-25T16:32:14.491Z,9.70
2019-03-25T16:34:41.423Z,9.87
2019-03-25T16:37:08.183Z,8.50
2019-03-25T16:39:34.783Z,9.67
2019-03-25T16:42:01.381Z,10.53
2019-03-25T16:44:28.054Z,12.93
2019-03-25T16:46:54.638Z,9.97
2019-03-25T16:49:21.226Z,8.73
2019-03-25T16:51:48.158Z,9.80
2019-03-25T16:54:14.746Z,8.40
2019-03-25T16:56:41.334Z,8.50
2019-03-25T16:59:07.910Z,9.90
2019-03-25T17:01:34.538Z,6.20
2019-03-25T17:04:01.135Z,11.27
2019-03-25T17:06:27.738Z,7.20
2019-03-25T17:08:54.301Z,10.60
2019-03-25T17:11:21.227Z,10.40
2019-03-25T17:13:47.842Z,10.77
2019-03-25T17:16:14.481Z,7.47
2019-03-25T17:18:41.089Z,9.57
2019-03-25T17:21:07.726Z,9.40
2019-03-25T17:23:34.318Z,12.87
2019-03-25T17:26:00.942Z,11.50
2019-03-25T17:28:27.729Z,9.80
2019-03-25T17:30:54.312Z,11.20
2019-03-25T17:33:20.902Z,9.47
2019-03-25T17:35:47.481Z,13.93
2019-03-25T17:38:14.093Z,13.10
2019-03-25T17:40:40.746Z,11.00
2019-03-25T17:43:07.418Z,9.17
2019-03-25T17:45:33.987Z,20.33
2019-03-25T17:48:00.572Z,12.33
2019-03-25T17:50:27.142Z,9.70
2019-03-25T17:52:53.730Z,13.70
2019-03-25T17:55:20.298Z,11.67
2019-03-25T17:57:46.885Z,12.27
2019-03-25T18:00:15.583Z,14.73
2019-03-25T18:02:42.154Z,16.57
2019-03-25T18:05:09.044Z,13.97
2019-03-25T18:07:35.722Z,12.13
2019-03-25T18:10:03.545Z,10.63
2019-03-25T18:12:38.435Z,10.77
2019-03-25T18:14:58.593Z,17.90
2019-03-25T18:17:25.183Z,10.60
2019-03-25T18:19:51.776Z,12.30
2019-03-25T18:22:18.350Z,12.67
2019-03-25T18:24:44.934Z,11.30
2019-03-25T18:27:11.612Z,16.87
2019-03-25T18:29:38.198Z,10.07
2019-03-25T18:32:04.766Z,14.70
2019-03-25T18:34:31.363Z,11.07
2019-03-25T18:36:57.950Z,10.97
2019-03-25T18:39:24.541Z,9.10
2019-03-25T18:41:51.225Z,11.50
2019-03-25T18:44:17.802Z,12.23
2019-03-25T18:46:44.395Z,11.37
2019-03-25T18:49:11.066Z,10.23
2019-03-25T18:51:37.665Z,8.30
2019-03-25T18:54:04.253Z,9.83
2019-03-25T18:56:30.876Z,7.87
2019-03-25T18:58:57.537Z,9.73
2019-03-25T19:01:24.430Z,9.13
2019-03-25T19:03:51.007Z,9.63
2019-03-25T19:06:17.700Z,8.83
2019-03-25T19:08:44.488Z,7.17
2019-03-25T19:11:11.182Z,8.37
2019-03-25T19:13:37.745Z,8.00
2019-03-25T19:16:04.335Z,10.40
2019-03-25T19:18:30.916Z,9.40
2019-03-25T19:20:57.538Z,9.23
2019-03-25T19:23:24.137Z,6.13
2019-03-25T19:25:50.812Z,12.43
2019-03-25T19:28:18.999Z,8.07
2019-03-25T19:30:45.755Z,10.40
2019-03-25T19:33:12.350Z,8.80
2019-03-25T19:35:39.022Z,7.93
2019-03-25T19:38:05.719Z,7.47
2019-03-25T19:40:32.376Z,6.47
2019-03-25T19:42:59.285Z,8.30
2019-03-25T19:45:26.137Z,7.87
2019-03-25T19:47:52.742Z,6.80
2019-03-25T19:50:19.462Z,10.60
2019-03-25T19:52:46.122Z,7.13
2019-03-25T19:55:13.079Z,11.20
2019-03-25T19:57:39.659Z,15.40
2019-03-25T20:00:07.808Z,10.03
2019-03-25T20:02:34.450Z,7.90
2019-03-25T20:05:01.127Z,8.20
2019-03-25T20:07:27.785Z,6.87
2019-03-25T20:09:54.498Z,7.10
2019-03-25T20:12:21.193Z,9.63
2019-03-25T20:14:47.880Z,10.53
2019-03-25T20:17:14.574Z,8.73
2019-03-25T20:19:41.310Z,8.17
2019-03-25T20:22:08.074Z,8.43
2019-03-25T20:24:34.837Z,7.73
2019-03-25T20:27:01.535Z,8.83
2019-03-25T20:29:28.324Z,11.80
2019-03-25T20:31:55.105Z,9.67
2019-03-25T20:34:21.878Z,8.80
2019-03-25T20:36:48.542Z,11.27
2019-03-25T20:39:15.275Z,13.60
2019-03-25T20:41:42.102Z,12.73
2019-03-25T20:44:08.922Z,8.73
2019-03-25T20:46:35.707Z,10.97
2019-03-25T20:49:02.783Z,8.90
2019-03-25T20:51:29.392Z,10.63
2019-03-25T20:53:56.031Z,8.10
2019-03-25T20:56:22.698Z,10.20
2019-03-25T20:58:49.396Z,7.07
2019-03-25T21:01:16.066Z,9.80
2019-03-25T21:03:42.796Z,13.43
2019-03-25T21:06:12.058Z,11.57
2019-03-25T21:08:38.728Z,12.73
2019-03-25T21:11:05.566Z,19.93
2019-03-25T21:13:32.392Z,12.67
2019-03-25T21:15:59.099Z,9.73
2019-03-25T21:18:25.815Z,8.90
2019-03-25T21:20:52.525Z,8.93
2019-03-25T21:23:19.250Z,12.00
2019-03-25T21:25:45.906Z,11.20
2019-03-25T21:28:12.580Z,10.63
2019-03-25T21:30:47.861Z,8.83
2019-03-25T21:33:07.878Z,10.73
2019-03-25T21:35:34.790Z,11.83
2019-03-25T21:38:01.400Z,8.57
2019-03-25T21:40:27.999Z,12.83
2019-03-25T21:42:54.684Z,11.73
2019-03-25T21:45:21.374Z,12.70
2019-03-25T21:47:48.287Z,10.10
2019-03-25T21:50:15.096Z,18.00
2019-03-25T21:52:41.689Z,13.37
2019-03-25T21:55:08.481Z,9.93
2019-03-25T21:57:35.187Z,10.93
2019-03-25T22:00:03.644Z,14.77
2019-03-25T22:02:30.378Z,5.73
2019-03-25T22:04:57.344Z,10.63
2019-03-25T22:07:24.091Z,14.10
2019-03-25T22:09:50.699Z,9.57
2019-03-25T22:12:17.286Z,9.37
2019-03-25T22:14:44.203Z,11.93
2019-03-25T22:17:10.803Z,13.40
2019-03-25T22:19:37.406Z,12.60
2019-03-25T22:22:03.994Z,10.67
2019-03-25T22:24:30.910Z,8.70
2019-03-25T22:26:57.498Z,13.37
2019-03-25T22:29:24.183Z,12.70
2019-03-25T22:31:52.520Z,10.07
2019-03-25T22:34:19.193Z,8.70
2019-03-25T22:36:45.818Z,10.43
2019-03-25T22:39:12.431Z,10.73
2019-03-25T22:41:39.022Z,15.20
2019-03-25T22:44:05.738Z,8.47
2019-03-25T22:46:32.359Z,13.27
2019-03-25T22:48:58.971Z,8.37
2019-03-25T22:51:25.566Z,10.17
2019-03-25T22:53:52.183Z,9.60
2019-03-25T22:56:18.970Z,6.93
2019-03-25T22:58:45.574Z,13.33
2019-03-25T23:01:12.380Z,8.83
2019-03-25T23:03:39.812Z,11.77
2019-03-25T23:06:06.597Z,15.43
2019-03-25T23:08:33.196Z,16.53
2019-03-25T23:10:59.810Z,7.87
2019-03-25T23:13:26.397Z,13.47
2019-03-25T23:15:53.010Z,16.80
2019-03-25T23:18:19.603Z,15.87
2019-03-25T23:20:46.482Z,14.03
2019-03-25T23:23:13.093Z,18.47
2019-03-25T23:25:39.761Z,12.07
2019-03-25T23:28:06.394Z,12.77
2019-03-25T23:30:33.002Z,12.63
2019-03-25T23:32:59.587Z,11.87
2019-03-25T23:35:26.206Z,13.17
2019-03-25T23:37:52.802Z,15.07
2019-03-25T23:40:19.410Z,17.50
2019-03-25T23:42:46.003Z,11.03
2019-03-25T23:45:12.610Z,13.93
2019-03-25T23:47:39.197Z,15.17
2019-03-25T23:50:05.928Z,12.30
2019-03-25T23:52:32.498Z,14.37
2019-03-25T23:54:59.236Z,12.20
2019-03-25T23:57:25.810Z,15.43
2019-03-25T23:59:52.478Z,18.23
